Portada
METAR-TAF:

METAR-TAF

Aeroports :

Trang, Tailàndia

latitud: 07-31N, longitud: 099-37E, altitud: 14 m

Observació

L'informe es va fer fa 58 minuts, a les 03:00 UTC
Vent 2 kt amb direcció variable
Temperatura 31°C
Humitat 71%
Pressió 1010 hPa
Visibilitat 10 km o més
Escasses núvols a una alçada de 2000 ft

METAR: VTST 210300Z VRB02KT 9999 FEW020 31/25 Q1010 NOSIG

Hora: 10:58 (03:58 UTC)

Pronòstic

L'informe es va fer fa 4 hores i 58 minuts, a les 23:00 UTC
Pronòstic vàlid del 21 a les 00 UTC al 21 a les 24 UTC
Vent 8 kt del Est/Nord-Est
Visibilitat 10 km o més
Escasses núvols a una alçada de 2000 ft
Temporalment
l' 21 a les 06 UTC al 21 a les 12 UTC
Vent 15 kt del Est amb ràfegues de 30 kt
Visibilitat: 3000 m
Escasses núvols a una alçada de 1800 ft, Cumulonimbus.
Núvols disperses a una alçada de 2000 ft
Cel ennuvolat a una alçada de 10000 ft
tempesta, pluja

TAF: VTST 202300Z 2100/2124 06008KT 9999 FEW020 TEMPO 2106/2112 10015G30KT 3000 TSRA FEW018CB SCT020 BKN100

Observacions i pronòstics meteorològics de més de 4000 aeroports (METAR i TAF).

Les estacions disponibles són els punts grocs i vermells al mapa.

Posi el ratolí al punt desitjat per veure el nom de l'estació.

Feu clic per veure les observacions i els pronòstics meteorològics.

Per canviar el mapa: feu clic els botons verds amb una creu de color negre per apropar; al botó verd amb un guió per allunyar la imatge; o en les fletxes verdes per a mapes adjacents.


METAR-TAF: